sensor_id;sensor_type;location;lat;lon;timestamp;P1;durP1;ratioP1;P2;durP2;ratioP2
59790;SDS011;47431;51.640;5.554;2023-02-23T00:00:32;93.00;;;55.25;;
59790;SDS011;47431;51.640;5.554;2023-02-23T00:02:58;90.20;;;54.58;;
59790;SDS011;47431;51.640;5.554;2023-02-23T00:05:29;103.80;;;60.45;;
59790;SDS011;47431;51.640;5.554;2023-02-23T00:07:55;101.53;;;59.58;;
59790;SDS011;47431;51.640;5.554;2023-02-23T00:10:20;94.47;;;54.22;;
59790;SDS011;47431;51.640;5.554;2023-02-23T00:12:48;101.03;;;58.95;;
59790;SDS011;47431;51.640;5.554;2023-02-23T00:15:14;104.25;;;58.35;;
59790;SDS011;47431;51.640;5.554;2023-02-23T00:17:39;95.30;;;53.60;;
59790;SDS011;47431;51.640;5.554;2023-02-23T00:20:05;93.93;;;52.85;;
59790;SDS011;47431;51.640;5.554;2023-02-23T00:22:32;92.70;;;53.17;;
59790;SDS011;47431;51.640;5.554;2023-02-23T00:24:57;89.90;;;55.97;;
59790;SDS011;47431;51.640;5.554;2023-02-23T00:27:23;92.72;;;55.15;;
59790;SDS011;47431;51.640;5.554;2023-02-23T00:29:49;91.07;;;52.58;;
59790;SDS011;47431;51.640;5.554;2023-02-23T00:32:14;90.22;;;56.47;;
59790;SDS011;47431;51.640;5.554;2023-02-23T00:34:47;84.55;;;54.53;;
59790;SDS011;47431;51.640;5.554;2023-02-23T00:37:14;87.60;;;53.97;;
59790;SDS011;47431;51.640;5.554;2023-02-23T00:39:39;98.00;;;55.30;;
59790;SDS011;47431;51.640;5.554;2023-02-23T00:42:04;91.13;;;57.33;;
59790;SDS011;47431;51.640;5.554;2023-02-23T00:44:30;91.82;;;55.17;;
59790;SDS011;47431;51.640;5.554;2023-02-23T00:46:59;91.68;;;52.58;;
59790;SDS011;47431;51.640;5.554;2023-02-23T00:49:25;91.30;;;53.45;;
59790;SDS011;47431;51.640;5.554;2023-02-23T00:51:51;88.30;;;52.60;;
59790;SDS011;47431;51.640;5.554;2023-02-23T00:54:16;89.35;;;53.67;;
59790;SDS011;47431;51.640;5.554;2023-02-23T00:56:42;81.07;;;52.45;;
59790;SDS011;47431;51.640;5.554;2023-02-23T00:59:07;93.18;;;53.35;;
59790;SDS011;47431;51.640;5.554;2023-02-23T01:01:33;87.63;;;51.47;;
59790;SDS011;47431;51.640;5.554;2023-02-23T01:03:58;88.32;;;50.45;;
59790;SDS011;47431;51.640;5.554;2023-02-23T01:06:23;92.75;;;55.10;;
59790;SDS011;47431;51.640;5.554;2023-02-23T01:08:49;86.07;;;53.13;;
59790;SDS011;47431;51.640;5.554;2023-02-23T01:11:24;92.05;;;55.55;;
59790;SDS011;47431;51.640;5.554;2023-02-23T01:13:55;96.72;;;54.45;;
59790;SDS011;47431;51.640;5.554;2023-02-23T01:16:22;86.53;;;52.47;;
59790;SDS011;47431;51.640;5.554;2023-02-23T01:18:50;99.05;;;55.88;;
59790;SDS011;47431;51.640;5.554;2023-02-23T01:21:16;94.45;;;53.58;;
59790;SDS011;47431;51.640;5.554;2023-02-23T01:23:41;94.15;;;55.45;;
59790;SDS011;47431;51.640;5.554;2023-02-23T01:28:43;87.22;;;54.92;;
59790;SDS011;47431;51.640;5.554;2023-02-23T01:31:08;93.97;;;53.30;;
59790;SDS011;47431;51.640;5.554;2023-02-23T01:33:33;90.72;;;53.63;;
59790;SDS011;47431;51.640;5.554;2023-02-23T01:35:59;89.85;;;52.33;;
59790;SDS011;47431;51.640;5.554;2023-02-23T01:38:24;91.78;;;54.03;;
59790;SDS011;47431;51.640;5.554;2023-02-23T01:40:49;90.95;;;52.00;;
59790;SDS011;47431;51.640;5.554;2023-02-23T01:43:16;91.88;;;53.95;;
59790;SDS011;47431;51.640;5.554;2023-02-23T01:45:42;80.03;;;52.60;;
59790;SDS011;47431;51.640;5.554;2023-02-23T01:48:08;87.85;;;50.22;;
59790;SDS011;47431;51.640;5.554;2023-02-23T01:53:06;95.13;;;52.17;;
59790;SDS011;47431;51.640;5.554;2023-02-23T01:55:32;95.22;;;53.67;;
59790;SDS011;47431;51.640;5.554;2023-02-23T01:58:09;89.93;;;47.78;;
59790;SDS011;47431;51.640;5.554;2023-02-23T02:00:39;94.05;;;51.25;;
59790;SDS011;47431;51.640;5.554;2023-02-23T02:03:06;88.78;;;51.53;;
59790;SDS011;47431;51.640;5.554;2023-02-23T02:05:34;89.75;;;53.10;;
59790;SDS011;47431;51.640;5.554;2023-02-23T02:07:59;90.95;;;51.63;;
59790;SDS011;47431;51.640;5.554;2023-02-23T02:10:25;90.05;;;53.38;;
59790;SDS011;47431;51.640;5.554;2023-02-23T02:13:18;94.18;;;53.35;;
59790;SDS011;47431;51.640;5.554;2023-02-23T02:26:10;99.18;;;52.25;;
59790;SDS011;47431;51.640;5.554;2023-02-23T02:39:27;89.55;;;53.65;;
59790;SDS011;47431;51.640;5.554;2023-02-23T02:44:36;91.10;;;50.42;;
59790;SDS011;47431;51.640;5.554;2023-02-23T02:47:07;94.20;;;52.60;;
59790;SDS011;47431;51.640;5.554;2023-02-23T02:49:37;99.25;;;54.78;;
59790;SDS011;47431;51.640;5.554;2023-02-23T02:57:01;94.45;;;54.92;;
59790;SDS011;47431;51.640;5.554;2023-02-23T02:59:28;95.80;;;54.70;;
59790;SDS011;47431;51.640;5.554;2023-02-23T03:02:16;98.72;;;53.38;;
59790;SDS011;47431;51.640;5.554;2023-02-23T03:05:00;96.15;;;52.25;;
59790;SDS011;47431;51.640;5.554;2023-02-23T03:08:20;100.07;;;53.60;;
59790;SDS011;47431;51.640;5.554;2023-02-23T03:10:56;105.78;;;58.13;;
59790;SDS011;47431;51.640;5.554;2023-02-23T03:13:46;105.78;;;55.85;;
59790;SDS011;47431;51.640;5.554;2023-02-23T03:16:36;100.05;;;56.22;;
59790;SDS011;47431;51.640;5.554;2023-02-23T03:19:26;103.40;;;57.33;;
59790;SDS011;47431;51.640;5.554;2023-02-23T03:25:17;99.15;;;55.72;;
59790;SDS011;47431;51.640;5.554;2023-02-23T03:28:18;100.63;;;56.33;;
59790;SDS011;47431;51.640;5.554;2023-02-23T03:34:14;102.97;;;58.10;;
59790;SDS011;47431;51.640;5.554;2023-02-23T03:36:57;103.47;;;58.47;;
59790;SDS011;47431;51.640;5.554;2023-02-23T03:39:46;110.32;;;56.65;;
59790;SDS011;47431;51.640;5.554;2023-02-23T03:42:34;107.60;;;56.67;;
59790;SDS011;47431;51.640;5.554;2023-02-23T03:45:19;103.57;;;57.47;;
59790;SDS011;47431;51.640;5.554;2023-02-23T03:48:05;103.03;;;54.30;;
59790;SDS011;47431;51.640;5.554;2023-02-23T03:50:54;101.82;;;58.20;;
59790;SDS011;47431;51.640;5.554;2023-02-23T03:53:47;110.57;;;56.15;;
59790;SDS011;47431;51.640;5.554;2023-02-23T03:56:34;109.30;;;57.08;;
59790;SDS011;47431;51.640;5.554;2023-02-23T03:59:20;98.68;;;53.97;;
59790;SDS011;47431;51.640;5.554;2023-02-23T04:02:07;107.22;;;56.97;;
59790;SDS011;47431;51.640;5.554;2023-02-23T04:04:51;105.75;;;56.45;;
59790;SDS011;47431;51.640;5.554;2023-02-23T04:07:37;107.35;;;58.85;;
59790;SDS011;47431;51.640;5.554;2023-02-23T04:10:21;98.15;;;54.88;;
59790;SDS011;47431;51.640;5.554;2023-02-23T04:13:07;99.43;;;55.00;;
59790;SDS011;47431;51.640;5.554;2023-02-23T04:15:42;109.05;;;58.05;;
59790;SDS011;47431;51.640;5.554;2023-02-23T04:18:10;100.35;;;55.45;;
59790;SDS011;47431;51.640;5.554;2023-02-23T04:20:36;97.22;;;55.30;;
59790;SDS011;47431;51.640;5.554;2023-02-23T04:23:02;109.28;;;55.72;;
59790;SDS011;47431;51.640;5.554;2023-02-23T04:25:27;108.20;;;60.28;;
59790;SDS011;47431;51.640;5.554;2023-02-23T04:27:53;105.88;;;57.08;;
59790;SDS011;47431;51.640;5.554;2023-02-23T04:30:18;113.93;;;57.28;;
59790;SDS011;47431;51.640;5.554;2023-02-23T04:32:45;105.10;;;56.63;;
59790;SDS011;47431;51.640;5.554;2023-02-23T04:35:11;106.85;;;56.63;;
59790;SDS011;47431;51.640;5.554;2023-02-23T04:37:36;110.35;;;57.28;;
59790;SDS011;47431;51.640;5.554;2023-02-23T04:40:01;105.28;;;55.65;;
59790;SDS011;47431;51.640;5.554;2023-02-23T04:42:27;110.68;;;61.20;;
59790;SDS011;47431;51.640;5.554;2023-02-23T04:44:52;113.70;;;62.58;;
59790;SDS011;47431;51.640;5.554;2023-02-23T04:47:18;111.55;;;60.60;;
59790;SDS011;47431;51.640;5.554;2023-02-23T04:49:43;126.25;;;59.72;;
59790;SDS011;47431;51.640;5.554;2023-02-23T04:52:08;106.63;;;55.25;;
59790;SDS011;47431;51.640;5.554;2023-02-23T04:54:36;116.53;;;58.42;;
59790;SDS011;47431;51.640;5.554;2023-02-23T04:57:01;119.05;;;63.50;;
59790;SDS011;47431;51.640;5.554;2023-02-23T04:59:27;109.72;;;59.10;;
59790;SDS011;47431;51.640;5.554;2023-02-23T05:01:52;111.20;;;56.83;;
59790;SDS011;47431;51.640;5.554;2023-02-23T05:04:17;109.82;;;52.97;;
59790;SDS011;47431;51.640;5.554;2023-02-23T05:06:43;100.53;;;55.33;;
59790;SDS011;47431;51.640;5.554;2023-02-23T05:09:08;112.70;;;55.40;;
59790;SDS011;47431;51.640;5.554;2023-02-23T05:11:33;108.13;;;54.30;;
59790;SDS011;47431;51.640;5.554;2023-02-23T05:13:59;104.13;;;53.47;;
59790;SDS011;47431;51.640;5.554;2023-02-23T05:16:24;104.55;;;52.08;;
59790;SDS011;47431;51.640;5.554;2023-02-23T05:18:50;113.15;;;56.35;;
59790;SDS011;47431;51.640;5.554;2023-02-23T05:21:16;128.02;;;55.20;;
59790;SDS011;47431;51.640;5.554;2023-02-23T05:23:41;103.05;;;55.53;;
59790;SDS011;47431;51.640;5.554;2023-02-23T05:26:08;103.25;;;52.40;;
59790;SDS011;47431;51.640;5.554;2023-02-23T05:28:34;116.55;;;55.28;;
59790;SDS011;47431;51.640;5.554;2023-02-23T05:31:00;116.50;;;58.40;;
59790;SDS011;47431;51.640;5.554;2023-02-23T05:33:25;110.07;;;54.65;;
59790;SDS011;47431;51.640;5.554;2023-02-23T05:35:50;108.15;;;54.10;;
59790;SDS011;47431;51.640;5.554;2023-02-23T05:38:16;121.65;;;53.63;;
59790;SDS011;47431;51.640;5.554;2023-02-23T05:40:41;120.78;;;53.47;;
59790;SDS011;47431;51.640;5.554;2023-02-23T05:43:06;108.95;;;54.53;;
59790;SDS011;47431;51.640;5.554;2023-02-23T05:45:32;104.50;;;51.28;;
59790;SDS011;47431;51.640;5.554;2023-02-23T05:47:57;106.03;;;54.25;;
59790;SDS011;47431;51.640;5.554;2023-02-23T05:50:22;105.45;;;50.15;;
59790;SDS011;47431;51.640;5.554;2023-02-23T05:52:48;102.88;;;51.55;;
59790;SDS011;47431;51.640;5.554;2023-02-23T05:55:13;91.15;;;50.28;;
59790;SDS011;47431;51.640;5.554;2023-02-23T05:57:39;87.25;;;47.33;;
59790;SDS011;47431;51.640;5.554;2023-02-23T06:00:09;97.75;;;49.30;;
59790;SDS011;47431;51.640;5.554;2023-02-23T06:02:34;93.57;;;51.28;;
59790;SDS011;47431;51.640;5.554;2023-02-23T06:05:00;99.60;;;50.35;;
59790;SDS011;47431;51.640;5.554;2023-02-23T06:07:26;107.93;;;52.45;;
59790;SDS011;47431;51.640;5.554;2023-02-23T06:09:51;93.68;;;47.47;;
59790;SDS011;47431;51.640;5.554;2023-02-23T06:12:16;113.30;;;53.83;;
59790;SDS011;47431;51.640;5.554;2023-02-23T06:14:42;114.28;;;55.40;;
59790;SDS011;47431;51.640;5.554;2023-02-23T06:17:07;103.20;;;54.28;;
59790;SDS011;47431;51.640;5.554;2023-02-23T06:19:32;108.18;;;51.17;;
59790;SDS011;47431;51.640;5.554;2023-02-23T06:21:58;116.68;;;54.25;;
59790;SDS011;47431;51.640;5.554;2023-02-23T06:24:23;103.38;;;51.38;;
59790;SDS011;47431;51.640;5.554;2023-02-23T06:26:49;126.75;;;56.75;;
59790;SDS011;47431;51.640;5.554;2023-02-23T06:29:14;120.72;;;55.50;;
59790;SDS011;47431;51.640;5.554;2023-02-23T06:31:39;118.20;;;56.88;;
59790;SDS011;47431;51.640;5.554;2023-02-23T06:34:05;150.55;;;60.83;;
59790;SDS011;47431;51.640;5.554;2023-02-23T06:36:30;122.38;;;57.45;;
59790;SDS011;47431;51.640;5.554;2023-02-23T06:38:56;146.10;;;61.83;;
59790;SDS011;47431;51.640;5.554;2023-02-23T06:41:22;145.63;;;64.13;;
59790;SDS011;47431;51.640;5.554;2023-02-23T06:43:47;143.32;;;59.20;;
59790;SDS011;47431;51.640;5.554;2023-02-23T06:46:12;145.77;;;62.25;;
59790;SDS011;47431;51.640;5.554;2023-02-23T06:48:38;138.48;;;60.10;;
59790;SDS011;47431;51.640;5.554;2023-02-23T06:51:03;152.85;;;62.47;;
59790;SDS011;47431;51.640;5.554;2023-02-23T06:53:28;156.40;;;64.68;;
59790;SDS011;47431;51.640;5.554;2023-02-23T06:55:54;148.63;;;62.92;;
59790;SDS011;47431;51.640;5.554;2023-02-23T06:58:20;162.13;;;63.88;;
59790;SDS011;47431;51.640;5.554;2023-02-23T07:00:45;158.63;;;62.15;;
59790;SDS011;47431;51.640;5.554;2023-02-23T07:03:11;136.95;;;56.28;;
59790;SDS011;47431;51.640;5.554;2023-02-23T07:05:36;136.18;;;58.25;;
59790;SDS011;47431;51.640;5.554;2023-02-23T07:08:01;151.50;;;59.38;;
59790;SDS011;47431;51.640;5.554;2023-02-23T07:10:27;141.07;;;61.17;;
59790;SDS011;47431;51.640;5.554;2023-02-23T07:12:53;167.88;;;57.83;;
59790;SDS011;47431;51.640;5.554;2023-02-23T07:15:18;167.50;;;64.28;;
59790;SDS011;47431;51.640;5.554;2023-02-23T07:17:44;180.23;;;64.35;;
59790;SDS011;47431;51.640;5.554;2023-02-23T07:20:21;162.30;;;59.83;;
59790;SDS011;47431;51.640;5.554;2023-02-23T07:22:46;149.02;;;59.92;;
59790;SDS011;47431;51.640;5.554;2023-02-23T07:25:12;159.75;;;60.97;;
59790;SDS011;47431;51.640;5.554;2023-02-23T07:27:37;157.23;;;60.40;;
59790;SDS011;47431;51.640;5.554;2023-02-23T07:30:03;197.00;;;68.85;;
59790;SDS011;47431;51.640;5.554;2023-02-23T07:32:28;255.90;;;79.55;;
59790;SDS011;47431;51.640;5.554;2023-02-23T07:34:54;162.20;;;62.83;;
59790;SDS011;47431;51.640;5.554;2023-02-23T07:37:19;162.25;;;58.22;;
59790;SDS011;47431;51.640;5.554;2023-02-23T07:39:45;186.60;;;63.20;;
59790;SDS011;47431;51.640;5.554;2023-02-23T07:42:10;181.23;;;61.90;;
59790;SDS011;47431;51.640;5.554;2023-02-23T07:44:36;185.75;;;67.57;;
59790;SDS011;47431;51.640;5.554;2023-02-23T07:47:02;180.88;;;64.05;;
59790;SDS011;47431;51.640;5.554;2023-02-23T07:49:27;205.20;;;67.97;;
59790;SDS011;47431;51.640;5.554;2023-02-23T07:51:52;201.00;;;65.40;;
59790;SDS011;47431;51.640;5.554;2023-02-23T07:54:17;191.18;;;71.25;;
59790;SDS011;47431;51.640;5.554;2023-02-23T07:56:43;191.45;;;69.45;;
59790;SDS011;47431;51.640;5.554;2023-02-23T07:59:08;193.20;;;73.05;;
59790;SDS011;47431;51.640;5.554;2023-02-23T08:01:33;194.38;;;73.40;;
59790;SDS011;47431;51.640;5.554;2023-02-23T08:03:59;198.20;;;70.40;;
59790;SDS011;47431;51.640;5.554;2023-02-23T08:06:25;215.32;;;78.15;;
59790;SDS011;47431;51.640;5.554;2023-02-23T08:08:50;249.30;;;78.82;;
59790;SDS011;47431;51.640;5.554;2023-02-23T08:11:15;196.32;;;72.03;;
59790;SDS011;47431;51.640;5.554;2023-02-23T08:13:41;228.35;;;74.00;;
59790;SDS011;47431;51.640;5.554;2023-02-23T08:16:06;194.95;;;64.93;;
59790;SDS011;47431;51.640;5.554;2023-02-23T08:18:31;182.45;;;72.28;;
59790;SDS011;47431;51.640;5.554;2023-02-23T08:21:00;190.52;;;67.05;;
59790;SDS011;47431;51.640;5.554;2023-02-23T08:23:27;208.63;;;67.25;;
59790;SDS011;47431;51.640;5.554;2023-02-23T08:25:53;187.50;;;66.70;;
59790;SDS011;47431;51.640;5.554;2023-02-23T08:28:18;207.98;;;70.68;;
59790;SDS011;47431;51.640;5.554;2023-02-23T08:30:43;220.15;;;70.43;;
59790;SDS011;47431;51.640;5.554;2023-02-23T08:33:09;191.45;;;66.78;;
59790;SDS011;47431;51.640;5.554;2023-02-23T08:35:34;196.02;;;70.05;;
59790;SDS011;47431;51.640;5.554;2023-02-23T08:37:59;182.63;;;68.47;;
59790;SDS011;47431;51.640;5.554;2023-02-23T08:40:24;174.50;;;60.17;;
59790;SDS011;47431;51.640;5.554;2023-02-23T08:42:49;184.90;;;68.88;;
59790;SDS011;47431;51.640;5.554;2023-02-23T08:45:18;175.88;;;66.35;;
59790;SDS011;47431;51.640;5.554;2023-02-23T08:47:43;164.73;;;63.38;;
59790;SDS011;47431;51.640;5.554;2023-02-23T08:50:09;187.15;;;65.05;;
59790;SDS011;47431;51.640;5.554;2023-02-23T08:52:35;182.55;;;64.00;;
59790;SDS011;47431;51.640;5.554;2023-02-23T08:55:00;181.63;;;65.18;;
59790;SDS011;47431;51.640;5.554;2023-02-23T08:57:25;166.02;;;63.08;;
59790;SDS011;47431;51.640;5.554;2023-02-23T08:59:51;175.38;;;61.40;;
59790;SDS011;47431;51.640;5.554;2023-02-23T09:02:16;168.57;;;62.42;;
59790;SDS011;47431;51.640;5.554;2023-02-23T09:04:41;163.40;;;63.83;;
59790;SDS011;47431;51.640;5.554;2023-02-23T09:07:08;174.02;;;61.63;;
59790;SDS011;47431;51.640;5.554;2023-02-23T09:09:33;168.82;;;62.15;;
59790;SDS011;47431;51.640;5.554;2023-02-23T09:11:59;154.00;;;57.78;;
59790;SDS011;47431;51.640;5.554;2023-02-23T09:14:24;164.55;;;61.13;;
59790;SDS011;47431;51.640;5.554;2023-02-23T09:16:49;145.93;;;58.42;;
59790;SDS011;47431;51.640;5.554;2023-02-23T09:19:15;150.55;;;59.55;;
59790;SDS011;47431;51.640;5.554;2023-02-23T09:21:40;150.68;;;55.78;;
59790;SDS011;47431;51.640;5.554;2023-02-23T09:24:07;137.80;;;52.40;;
59790;SDS011;47431;51.640;5.554;2023-02-23T09:26:32;149.25;;;56.83;;
59790;SDS011;47431;51.640;5.554;2023-02-23T09:28:58;139.88;;;54.75;;
59790;SDS011;47431;51.640;5.554;2023-02-23T09:31:23;140.48;;;56.92;;
59790;SDS011;47431;51.640;5.554;2023-02-23T09:33:49;133.95;;;54.97;;
59790;SDS011;47431;51.640;5.554;2023-02-23T09:36:15;143.60;;;53.20;;
59790;SDS011;47431;51.640;5.554;2023-02-23T09:38:41;146.38;;;56.65;;
59790;SDS011;47431;51.640;5.554;2023-02-23T09:41:15;136.65;;;56.30;;
59790;SDS011;47431;51.640;5.554;2023-02-23T09:43:49;133.30;;;54.58;;
59790;SDS011;47431;51.640;5.554;2023-02-23T09:46:36;128.70;;;58.33;;
59790;SDS011;47431;51.640;5.554;2023-02-23T09:49:09;111.20;;;51.63;;
59790;SDS011;47431;51.640;5.554;2023-02-23T09:51:37;126.55;;;52.47;;
59790;SDS011;47431;51.640;5.554;2023-02-23T09:54:04;125.00;;;52.78;;
59790;SDS011;47431;51.640;5.554;2023-02-23T09:56:36;108.85;;;52.80;;
59790;SDS011;47431;51.640;5.554;2023-02-23T09:59:04;123.63;;;53.88;;
59790;SDS011;47431;51.640;5.554;2023-02-23T10:01:35;122.57;;;56.25;;
59790;SDS011;47431;51.640;5.554;2023-02-23T10:06:43;124.13;;;51.33;;
59790;SDS011;47431;51.640;5.554;2023-02-23T10:22:23;125.88;;;55.00;;
59790;SDS011;47431;51.640;5.554;2023-02-23T10:24:51;118.93;;;53.65;;
59790;SDS011;47431;51.640;5.554;2023-02-23T10:27:19;128.38;;;57.92;;
59790;SDS011;47431;51.640;5.554;2023-02-23T10:29:46;125.30;;;56.00;;
59790;SDS011;47431;51.640;5.554;2023-02-23T10:34:56;129.63;;;53.90;;
59790;SDS011;47431;51.640;5.554;2023-02-23T10:37:22;132.07;;;55.15;;
59790;SDS011;47431;51.640;5.554;2023-02-23T10:39:48;121.10;;;53.28;;
59790;SDS011;47431;51.640;5.554;2023-02-23T10:42:17;117.28;;;50.60;;
59790;SDS011;47431;51.640;5.554;2023-02-23T10:44:44;117.78;;;54.33;;
59790;SDS011;47431;51.640;5.554;2023-02-23T10:47:12;113.22;;;52.55;;
59790;SDS011;47431;51.640;5.554;2023-02-23T10:49:45;112.53;;;51.88;;
59790;SDS011;47431;51.640;5.554;2023-02-23T10:52:11;100.28;;;49.67;;
59790;SDS011;47431;51.640;5.554;2023-02-23T10:54:42;92.55;;;46.08;;
59790;SDS011;47431;51.640;5.554;2023-02-23T10:57:08;98.38;;;49.15;;
59790;SDS011;47431;51.640;5.554;2023-02-23T10:59:37;100.20;;;51.90;;
59790;SDS011;47431;51.640;5.554;2023-02-23T11:02:14;97.70;;;51.38;;
59790;SDS011;47431;51.640;5.554;2023-02-23T11:04:40;88.68;;;47.70;;
59790;SDS011;47431;51.640;5.554;2023-02-23T11:07:14;89.82;;;49.72;;
59790;SDS011;47431;51.640;5.554;2023-02-23T11:09:40;93.57;;;47.63;;
59790;SDS011;47431;51.640;5.554;2023-02-23T11:12:15;93.85;;;46.35;;
59790;SDS011;47431;51.640;5.554;2023-02-23T11:14:45;100.85;;;48.30;;
59790;SDS011;47431;51.640;5.554;2023-02-23T11:17:31;96.97;;;48.63;;
59790;SDS011;47431;51.640;5.554;2023-02-23T11:20:02;100.00;;;48.10;;
59790;SDS011;47431;51.640;5.554;2023-02-23T11:22:30;100.25;;;49.40;;
59790;SDS011;47431;51.640;5.554;2023-02-23T11:24:55;100.25;;;48.55;;
59790;SDS011;47431;51.640;5.554;2023-02-23T11:27:21;93.32;;;45.75;;
59790;SDS011;47431;51.640;5.554;2023-02-23T11:29:48;104.30;;;48.20;;
59790;SDS011;47431;51.640;5.554;2023-02-23T11:34:46;88.97;;;45.33;;
59790;SDS011;47431;51.640;5.554;2023-02-23T11:37:19;88.53;;;44.10;;
59790;SDS011;47431;51.640;5.554;2023-02-23T11:42:17;89.78;;;45.58;;
59790;SDS011;47431;51.640;5.554;2023-02-23T11:44:48;89.70;;;46.28;;
59790;SDS011;47431;51.640;5.554;2023-02-23T11:47:15;87.50;;;45.63;;
59790;SDS011;47431;51.640;5.554;2023-02-23T11:49:42;78.60;;;42.88;;
59790;SDS011;47431;51.640;5.554;2023-02-23T11:52:15;86.13;;;46.45;;
59790;SDS011;47431;51.640;5.554;2023-02-23T11:54:47;82.18;;;44.42;;
59790;SDS011;47431;51.640;5.554;2023-02-23T11:57:21;73.30;;;43.50;;
59790;SDS011;47431;51.640;5.554;2023-02-23T11:59:47;72.47;;;41.95;;
59790;SDS011;47431;51.640;5.554;2023-02-23T12:02:26;74.65;;;42.40;;
59790;SDS011;47431;51.640;5.554;2023-02-23T12:05:00;81.43;;;45.67;;
59790;SDS011;47431;51.640;5.554;2023-02-23T12:10:23;72.38;;;43.35;;
59790;SDS011;47431;51.640;5.554;2023-02-23T12:12:51;64.03;;;36.95;;
59790;SDS011;47431;51.640;5.554;2023-02-23T12:15:21;69.47;;;43.85;;
59790;SDS011;47431;51.640;5.554;2023-02-23T12:17:49;65.72;;;39.22;;
59790;SDS011;47431;51.640;5.554;2023-02-23T12:20:17;64.80;;;39.45;;
59790;SDS011;47431;51.640;5.554;2023-02-23T12:22:45;65.40;;;39.13;;
59790;SDS011;47431;51.640;5.554;2023-02-23T12:30:50;65.68;;;40.95;;
59790;SDS011;47431;51.640;5.554;2023-02-23T12:35:58;76.82;;;41.08;;
59790;SDS011;47431;51.640;5.554;2023-02-23T12:41:12;55.88;;;32.00;;
59790;SDS011;47431;51.640;5.554;2023-02-23T12:43:52;53.38;;;32.97;;
59790;SDS011;47431;51.640;5.554;2023-02-23T12:46:20;51.72;;;32.20;;
59790;SDS011;47431;51.640;5.554;2023-02-23T12:48:59;51.30;;;29.45;;
59790;SDS011;47431;51.640;5.554;2023-02-23T12:53:58;55.55;;;32.15;;
59790;SDS011;47431;51.640;5.554;2023-02-23T12:59:02;45.22;;;27.70;;
59790;SDS011;47431;51.640;5.554;2023-02-23T13:01:42;39.65;;;26.73;;
59790;SDS011;47431;51.640;5.554;2023-02-23T13:04:28;42.58;;;28.27;;
59790;SDS011;47431;51.640;5.554;2023-02-23T13:14:41;24.77;;;15.48;;
59790;SDS011;47431;51.640;5.554;2023-02-23T13:19:39;22.52;;;16.10;;
59790;SDS011;47431;51.640;5.554;2023-02-23T13:24:41;26.95;;;18.52;;
59790;SDS011;47431;51.640;5.554;2023-02-23T13:29:36;24.60;;;17.40;;
59790;SDS011;47431;51.640;5.554;2023-02-23T13:32:04;25.67;;;16.77;;
59790;SDS011;47431;51.640;5.554;2023-02-23T13:34:32;24.60;;;16.63;;
59790;SDS011;47431;51.640;5.554;2023-02-23T13:36:59;21.73;;;15.75;;
59790;SDS011;47431;51.640;5.554;2023-02-23T13:41:56;23.92;;;17.27;;
59790;SDS011;47431;51.640;5.554;2023-02-23T13:46:56;26.98;;;16.13;;
59790;SDS011;47431;51.640;5.554;2023-02-23T13:49:38;23.52;;;15.10;;
59790;SDS011;47431;51.640;5.554;2023-02-23T13:54:52;25.13;;;16.05;;
59790;SDS011;47431;51.640;5.554;2023-02-23T13:59:45;20.75;;;14.52;;
59790;SDS011;47431;51.640;5.554;2023-02-23T14:02:31;24.50;;;15.30;;
59790;SDS011;47431;51.640;5.554;2023-02-23T14:05:17;22.52;;;14.88;;
59790;SDS011;47431;51.640;5.554;2023-02-23T14:07:44;26.30;;;15.80;;
59790;SDS011;47431;51.640;5.554;2023-02-23T14:10:19;24.08;;;15.18;;
59790;SDS011;47431;51.640;5.554;2023-02-23T14:18:00;36.25;;;18.58;;
59790;SDS011;47431;51.640;5.554;2023-02-23T14:23:04;26.65;;;17.95;;
59790;SDS011;47431;51.640;5.554;2023-02-23T14:28:03;24.92;;;16.80;;
59790;SDS011;47431;51.640;5.554;2023-02-23T14:30:47;29.75;;;17.33;;
59790;SDS011;47431;51.640;5.554;2023-02-23T14:35:59;29.30;;;17.75;;
59790;SDS011;47431;51.640;5.554;2023-02-23T14:38:42;25.63;;;16.08;;
59790;SDS011;47431;51.640;5.554;2023-02-23T14:41:08;30.38;;;17.38;;
59790;SDS011;47431;51.640;5.554;2023-02-23T14:46:00;26.85;;;16.77;;
59790;SDS011;47431;51.640;5.554;2023-02-23T14:48:25;26.65;;;15.55;;
59790;SDS011;47431;51.640;5.554;2023-02-23T14:50:50;33.60;;;16.15;;
59790;SDS011;47431;51.640;5.554;2023-02-23T14:53:17;29.48;;;16.58;;
59790;SDS011;47431;51.640;5.554;2023-02-23T14:55:43;27.48;;;16.55;;
59790;SDS011;47431;51.640;5.554;2023-02-23T14:58:26;31.63;;;16.30;;
59790;SDS011;47431;51.640;5.554;2023-02-23T15:00:52;25.80;;;16.75;;
59790;SDS011;47431;51.640;5.554;2023-02-23T15:03:17;32.42;;;16.70;;
59790;SDS011;47431;51.640;5.554;2023-02-23T15:05:43;39.00;;;17.98;;
59790;SDS011;47431;51.640;5.554;2023-02-23T15:08:16;30.45;;;17.50;;
59790;SDS011;47431;51.640;5.554;2023-02-23T15:10:43;32.30;;;16.58;;
59790;SDS011;47431;51.640;5.554;2023-02-23T15:13:10;30.73;;;16.38;;
59790;SDS011;47431;51.640;5.554;2023-02-23T15:15:35;31.52;;;16.83;;
59790;SDS011;47431;51.640;5.554;2023-02-23T15:18:09;27.80;;;15.80;;
59790;SDS011;47431;51.640;5.554;2023-02-23T15:20:37;27.45;;;14.25;;
59790;SDS011;47431;51.640;5.554;2023-02-23T15:23:05;26.27;;;14.35;;
59790;SDS011;47431;51.640;5.554;2023-02-23T15:25:35;22.10;;;13.82;;
59790;SDS011;47431;51.640;5.554;2023-02-23T15:28:09;25.80;;;13.90;;
59790;SDS011;47431;51.640;5.554;2023-02-23T15:30:42;28.83;;;16.73;;
59790;SDS011;47431;51.640;5.554;2023-02-23T15:33:11;41.75;;;18.98;;
59790;SDS011;47431;51.640;5.554;2023-02-23T15:38:22;32.30;;;18.20;;
59790;SDS011;47431;51.640;5.554;2023-02-23T15:40:48;28.15;;;15.65;;
59790;SDS011;47431;51.640;5.554;2023-02-23T15:43:14;21.77;;;13.27;;
59790;SDS011;47431;51.640;5.554;2023-02-23T15:45:41;27.00;;;16.25;;
59790;SDS011;47431;51.640;5.554;2023-02-23T15:48:13;26.05;;;13.93;;
59790;SDS011;47431;51.640;5.554;2023-02-23T15:50:42;25.83;;;14.43;;
59790;SDS011;47431;51.640;5.554;2023-02-23T15:53:12;27.33;;;15.82;;
59790;SDS011;47431;51.640;5.554;2023-02-23T15:55:43;27.05;;;14.57;;
59790;SDS011;47431;51.640;5.554;2023-02-23T15:58:11;28.80;;;13.95;;
59790;SDS011;47431;51.640;5.554;2023-02-23T16:00:40;25.70;;;14.88;;
59790;SDS011;47431;51.640;5.554;2023-02-23T16:03:06;28.05;;;14.55;;
59790;SDS011;47431;51.640;5.554;2023-02-23T16:05:33;32.45;;;15.88;;
59790;SDS011;47431;51.640;5.554;2023-02-23T16:08:05;25.73;;;13.30;;
59790;SDS011;47431;51.640;5.554;2023-02-23T16:10:38;26.75;;;14.68;;
59790;SDS011;47431;51.640;5.554;2023-02-23T16:13:05;27.48;;;15.00;;
59790;SDS011;47431;51.640;5.554;2023-02-23T16:15:34;29.27;;;14.65;;
59790;SDS011;47431;51.640;5.554;2023-02-23T16:18:02;31.85;;;15.55;;
59790;SDS011;47431;51.640;5.554;2023-02-23T16:20:41;26.67;;;15.00;;
59790;SDS011;47431;51.640;5.554;2023-02-23T16:23:10;27.70;;;14.15;;
59790;SDS011;47431;51.640;5.554;2023-02-23T16:25:39;28.65;;;15.85;;
59790;SDS011;47431;51.640;5.554;2023-02-23T16:28:09;29.27;;;15.25;;
59790;SDS011;47431;51.640;5.554;2023-02-23T16:33:08;26.48;;;15.57;;
59790;SDS011;47431;51.640;5.554;2023-02-23T16:35:38;29.80;;;14.85;;